M I D A S
Marine Information and Data Acquisition System
Tripno 1155 of the Zeeleeuw from 2006-08-29 06:31:26 to 2006-08-29 13:58:49
Back to CruiseResearch ActivitiesStationsMapUnderway DataData graphs

EquipmentUnitsComments
TimeDGPSUTC
LatitudeDGPSDM.mWGS84
LongitudeDGPSDM.mWGS84
SpeedMeteo Stationm/sRelative wind speed
DirectionMeteo StationdegRelative wind direction
TemperatureMeteo Stationdeg CelciusAir temperature
PressureMeteo StationPaAtmospheric pressure
HumidityMeteo Station%Relative humidity
Missing or incorrect values are displayed as -999
Metereological data collected by the RV Zeeleeuw from 2006-08-29 06:30:03 to 2006-08-29 14:10:36
                                                                                    Next 1000 lines
Time Latitude Longitude Speed Direction Temperature Pressure Humidity
2006-08-29 06:30:12 51°13.599 2°56.086 8 22 13.5 100750 84
2006-08-29 06:30:18 51°13.6 2°56.082 8.8 56 13.5 100750 84
2006-08-29 06:30:23 51°13.601 2°56.078 7.7 24 13.5 100760 83
2006-08-29 06:30:28 51°13.602 2°56.074 7.5 57 13.5 100760 83
2006-08-29 06:30:33 51°13.603 2°56.07 7 29 13.4 100760 84
2006-08-29 06:30:38 51°13.604 2°56.065 7 50 13.4 100760 84
2006-08-29 06:30:43 51°13.605 2°56.06 9.1 22 13.4 100760 83
2006-08-29 06:30:48 51°13.607 2°56.054 7.8 56 13.4 100760 83
2006-08-29 06:30:53 51°13.608 2°56.049 7.6 20 13.3 100760 83
2006-08-29 06:30:58 51°13.61 2°56.043 4.8 56 13.3 100760 83
2006-08-29 06:31:04 51°13.612 2°56.037 4.9 27 13.3 100760 83
2006-08-29 06:31:08 51°13.613 2°56.032 4.2 56 13.3 100760 83
2006-08-29 06:31:13 51°13.614 2°56.027 5.6 25 13.3 100760 83
2006-08-29 06:31:18 51°13.616 2°56.021 5.6 57 13.3 100760 83
2006-08-29 06:31:23 51°13.618 2°56.015 5 25 13.2 100760 84
2006-08-29 06:31:29 51°13.62 2°56.007 3.5 52 13.2 100760 84
2006-08-29 06:31:33 51°13.622 2°56.003 4.8 24 13.3 100760 85
2006-08-29 06:31:38 51°13.624 2°55.997 4.3 50 13.3 100760 85
2006-08-29 06:31:43 51°13.626 2°55.99 4.5 20 13.2 100760 84
2006-08-29 06:31:48 51°13.629 2°55.984 6.9 58 13.2 100760 84
2006-08-29 06:31:53 51°13.631 2°55.977 4.7 25 13.3 100760 85
2006-08-29 06:31:59 51°13.634 2°55.97 4.4 54 13.3 100760 85
2006-08-29 06:32:03 51°13.636 2°55.965 6 24 13.3 100760 85
2006-08-29 06:32:08 51°13.639 2°55.959 7.6 53 13.3 100760 85
2006-08-29 06:32:13 51°13.642 2°55.953 8.7 27 13.3 100760 86
2006-08-29 06:32:18 51°13.645 2°55.947 5.2 58 13.3 100760 86
2006-08-29 06:32:23 51°13.648 2°55.941 6.7 25 13.4 100760 85
2006-08-29 06:32:28 51°13.651 2°55.935 6.2 52 13.4 100760 85
2006-08-29 06:32:33 51°13.654 2°55.93 6.1 21 13.3 100760 84
2006-08-29 06:32:39 51°13.658 2°55.923 4 59 13.3 100760 84
2006-08-29 06:32:43 51°13.66 2°55.918 7.3 20 13.3 100760 84
2006-08-29 06:32:48 51°13.663 2°55.912 5.1 58 13.3 100760 84
2006-08-29 06:32:53 51°13.666 2°55.906 7.8 29 13.4 100760 84
2006-08-29 06:32:59 51°13.67 2°55.899 5.1 54 13.4 100760 84
2006-08-29 06:33:03 51°13.672 2°55.893 5.9 24 13.5 100760 84
2006-08-29 06:33:09 51°13.676 2°55.886 5.6 57 13.5 100760 84
2006-08-29 06:33:13 51°13.678 2°55.881 6.6 26 13.5 100750 84
2006-08-29 06:33:18 51°13.681 2°55.874 4.8 59 13.5 100750 84
2006-08-29 06:33:23 51°13.684 2°55.868 4.4 25 13.5 100750 84
2006-08-29 06:33:28 51°13.687 2°55.861 6.5 52 13.5 100750 84
2006-08-29 06:33:33 51°13.69 2°55.854 5.1 25 13.5 100750 84
2006-08-29 06:33:38 51°13.692 2°55.847 6.3 51 13.5 100750 84
2006-08-29 06:33:43 51°13.695 2°55.841 5.4 22 13.6 100750 85
2006-08-29 06:33:48 51°13.698 2°55.833 3.8 53 13.6 100750 85
2006-08-29 06:33:53 51°13.7 2°55.827 4.8 20 13.6 100750 85
2006-08-29 06:33:58 51°13.703 2°55.819 6.2 55 13.6 100750 85
2006-08-29 06:34:03 51°13.705 2°55.812 6.4 22 13.6 100750 84
2006-08-29 06:34:09 51°13.707 2°55.803 6 52 13.6 100750 84
2006-08-29 06:34:13 51°13.709 2°55.797 7.5 28 13.6 100740 84
2006-08-29 06:34:18 51°13.711 2°55.79 7.4 52 13.6 100740 84
2006-08-29 06:34:23 51°13.712 2°55.783 5.8 26 13.6 100740 84
2006-08-29 06:34:28 51°13.714 2°55.776 6.1 52 13.6 100740 84
2006-08-29 06:34:33 51°13.715 2°55.769 5 27 13.6 100740 84
2006-08-29 06:34:39 51°13.717 2°55.761 7.9 57 13.6 100740 84
2006-08-29 06:34:43 51°13.718 2°55.756 6.3 27 13.6 100760 84
2006-08-29 06:34:48 51°13.718 2°55.75 5.4 56 13.6 100760 84
2006-08-29 06:34:54 51°13.719 2°55.742 5 23 13.6 100750 83
2006-08-29 06:34:58 51°13.72 2°55.737 4.9 55 13.6 100750 83
2006-08-29 06:35:03 51°13.721 2°55.731 5.4 20 13.6 100750 83
2006-08-29 06:35:08 51°13.721 2°55.727 4.6 56 13.6 100750 83
2006-08-29 06:35:13 51°13.721 2°55.722 4.5 19 13.6 100750 83
2006-08-29 06:35:18 51°13.722 2°55.719 4.8 59 13.6 100750 83
2006-08-29 06:35:23 51°13.722 2°55.717 4.5 29 13.6 100740 83
2006-08-29 06:35:28 51°13.722 2°55.715 4.3 55 13.6 100740 83
2006-08-29 06:35:33 51°13.722 2°55.714 3.1 261 13.6 100740 83
2006-08-29 06:35:37 51°13.722 2°55.714 3.8 302 13.6 100740 83
2006-08-29 06:35:42 51°13.723 2°55.714 3.7 268 13.7 100740 83
2006-08-29 06:35:48 51°13.724 2°55.716 3.9 303 13.7 100740 83
2006-08-29 06:35:52 51°13.724 2°55.716 3.7 253 13.7 100740 83
2006-08-29 06:35:58 51°13.725 2°55.719 3.7 303 13.7 100740 83
2006-08-29 06:36:03 51°13.726 2°55.721 4 250 13.7 100740 83
2006-08-29 06:36:08 51°13.728 2°55.723 4.2 304 13.7 100740 83
2006-08-29 06:36:12 51°13.729 2°55.725 3.6 21 13.7 100740 84
2006-08-29 06:36:18 51°13.731 2°55.727 4.6 304 13.7 100740 84
2006-08-29 06:36:22 51°13.732 2°55.728 3.9 20 13.7 100740 84
2006-08-29 06:36:28 51°13.733 2°55.728 3.8 302 13.7 100740 84
2006-08-29 06:36:31 51°13.733 2°55.729 3.1 23 13.7 100740 84
2006-08-29 06:36:38 51°13.733 2°55.729 3.8 301 13.7 100740 84
2006-08-29 06:36:41 51°13.733 2°55.728 3.4 26 13.7 100740 84
2006-08-29 06:36:47 51°13.732 2°55.728 3.6 303 13.7 100740 84
2006-08-29 06:36:53 51°13.731 2°55.728 3 21 13.7 100740 84
2006-08-29 06:36:58 51°13.729 2°55.727 4.4 304 13.7 100740 84
2006-08-29 06:37:02 51°13.728 2°55.726 5.1 22 13.7 100740 84
2006-08-29 06:37:08 51°13.727 2°55.725 3.6 310 13.7 100740 84
2006-08-29 06:37:13 51°13.726 2°55.725 3.9 26 13.7 100740 84
2006-08-29 06:37:18 51°13.725 2°55.725 4.4 303 13.7 100740 84
2006-08-29 06:37:23 51°13.726 2°55.725 3.8 21 13.7 100730 84
2006-08-29 06:37:28 51°13.726 2°55.725 3.5 302 13.7 100730 84
2006-08-29 06:37:33 51°13.728 2°55.725 3 22 13.7 100740 84
2006-08-29 06:37:39 51°13.729 2°55.724 3.8 302 13.7 100740 84
2006-08-29 06:37:43 51°13.731 2°55.724 3.7 315 13.7 100730 84
2006-08-29 06:37:48 51°13.733 2°55.723 4.3 307 13.7 100730 84
2006-08-29 06:37:53 51°13.736 2°55.721 4.1 323 13.7 100730 84
2006-08-29 06:37:58 51°13.739 2°55.719 6 330 13.7 100730 84
2006-08-29 06:38:03 51°13.742 2°55.716 6.6 335 13.7 100730 83
2006-08-29 06:38:08 51°13.746 2°55.713 5.7 329 13.7 100730 83
2006-08-29 06:38:13 51°13.75 2°55.709 4.1 339 13.6 100730 83
2006-08-29 06:38:18 51°13.755 2°55.704 6.6 335 13.6 100730 83
2006-08-29 06:38:22 51°13.759 2°55.7 6.2 332 13.6 100730 83
2006-08-29 06:38:28 51°13.766 2°55.693 5.9 331 13.6 100730 83
2006-08-29 06:38:33 51°13.771 2°55.687 6.2 329 13.6 100730 82
2006-08-29 06:38:37 51°13.776 2°55.682 9.2 334 13.6 100730 82
2006-08-29 06:38:43 51°13.784 2°55.674 10 333 13.6 100730 82
2006-08-29 06:38:48 51°13.791 2°55.668 8.7 326 13.6 100730 82
2006-08-29 06:38:53 51°13.798 2°55.661 8.4 333 13.6 100730 81
2006-08-29 06:38:58 51°13.805 2°55.655 11.1 304 13.6 100730 81
2006-08-29 06:39:02 51°13.811 2°55.649 10.1 331 13.7 100730 81
2006-08-29 06:39:08 51°13.821 2°55.641 8.4 326 13.7 100730 81
2006-08-29 06:39:13 51°13.828 2°55.634 10 323 13.7 100720 81
2006-08-29 06:39:18 51°13.836 2°55.627 10.4 306 13.7 100720 81
2006-08-29 06:39:22 51°13.843 2°55.622 9.5 324 13.8 100720 81
2006-08-29 06:39:28 51°13.853 2°55.614 8.7 326 13.8 100720 81
2006-08-29 06:39:32 51°13.86 2°55.609 8.7 320 13.9 100720 81
2006-08-29 06:39:38 51°13.87 2°55.601 8.1 311 13.9 100720 81
2006-08-29 06:39:42 51°13.877 2°55.596 9.1 333 13.9 100730 81
2006-08-29 06:39:48 51°13.887 2°55.589 9.6 303 13.9 100730 81
2006-08-29 06:39:52 51°13.895 2°55.584 9 326 14 100720 80
2006-08-29 06:39:58 51°13.905 2°55.576 10.4 302 14 100720 80
2006-08-29 06:40:02 51°13.913 2°55.571 11.1 316 14 100720 80
2006-08-29 06:40:08 51°13.923 2°55.564 10.1 309 14 100720 80
2006-08-29 06:40:12 51°13.931 2°55.559 9.4 316 14.1 100720 80
2006-08-29 06:40:17 51°13.94 2°55.552 11.1 309 14.1 100720 80
2006-08-29 06:40:23 51°13.951 2°55.545 10.5 322 14.1 100720 80
2006-08-29 06:40:28 51°13.96 2°55.539 9.8 306 14.1 100720 80
2006-08-29 06:40:32 51°13.967 2°55.534 9.6 315 14.1 100720 80
2006-08-29 06:40:37 51°13.977 2°55.528 10.1 309 14.1 100720 80
2006-08-29 06:40:43 51°13.988 2°55.521 10.3 22 14.1 100720 79
2006-08-29 06:40:48 51°13.997 2°55.515 9.7 324 14.1 100720 79
2006-08-29 06:40:52 51°14.004 2°55.51 8.1 321 14.2 100720 79
2006-08-29 06:40:58 51°14.016 2°55.503 8.7 309 14.2 100720 79
2006-08-29 06:41:02 51°14.023 2°55.497 10.5 322 14.2 100720 79
2006-08-29 06:41:08 51°14.034 2°55.49 11.2 300 14.2 100720 79
2006-08-29 06:41:12 51°14.042 2°55.485 11.3 320 14.2 100710 80
2006-08-29 06:41:18 51°14.053 2°55.477 11.5 301 14.2 100710 80
2006-08-29 06:41:22 51°14.061 2°55.471 9.8 319 14.3 100720 80
2006-08-29 06:41:28 51°14.073 2°55.463 11.4 304 14.3 100720 80
2006-08-29 06:41:33 51°14.082 2°55.456 12.9 320 14.3 100710 80
2006-08-29 06:41:38 51°14.093 2°55.449 10.9 306 14.3 100710 80
2006-08-29 06:41:42 51°14.1 2°55.443 13.5 318 14.4 100720 81
2006-08-29 06:41:48 51°14.113 2°55.434 13.3 305 14.4 100720 81
2006-08-29 06:41:52 51°14.121 2°55.428 13.4 319 14.4 100710 81
2006-08-29 06:41:58 51°14.133 2°55.418 13 308 14.4 100710 81
2006-08-29 06:42:02 51°14.141 2°55.411 11.5 324 14.4 100710 81
2006-08-29 06:42:08 51°14.154 2°55.4 13.1 303 14.4 100710 81
2006-08-29 06:42:12 51°14.162 2°55.393 12.1 324 14.4 100700 80
2006-08-29 06:42:18 51°14.174 2°55.381 12.3 324 14.4 100700 80
2006-08-29 06:42:23 51°14.184 2°55.371 11.3 330 14.4 100710 80
2006-08-29 06:42:28 51°14.194 2°55.36 12.4 329 14.4 100710 80
2006-08-29 06:42:32 51°14.202 2°55.351 12.6 322 14.4 100710 80
2006-08-29 06:42:38 51°14.213 2°55.337 11.9 325 14.4 100710 80
2006-08-29 06:42:42 51°14.221 2°55.327 14 325 14.4 100710 80
2006-08-29 06:42:48 51°14.232 2°55.312 13.9 303 14.4 100710 80
2006-08-29 06:42:52 51°14.239 2°55.302 13.4 328 14.4 100710 79
2006-08-29 06:42:57 51°14.247 2°55.288 15.2 327 14.4 100710 79
2006-08-29 06:43:02 51°14.256 2°55.275 15.2 326 14.5 100720 80
2006-08-29 06:43:08 51°14.266 2°55.258 14.4 281 14.5 100720 80
2006-08-29 06:43:13 51°14.274 2°55.244 14.7 326 14.5 100710 80
2006-08-29 06:43:18 51°14.282 2°55.229 15.1 327 14.5 100710 80
2006-08-29 06:43:22 51°14.289 2°55.218 15.3 327 14.5 100700 79
2006-08-29 06:43:28 51°14.298 2°55.2 15.1 328 14.5 100700 79
2006-08-29 06:43:32 51°14.304 2°55.188 15.5 327 14.5 100700 78
2006-08-29 06:43:38 51°14.314 2°55.17 13.8 329 14.5 100700 78
2006-08-29 06:43:42 51°14.319 2°55.158 13.9 330 14.5 100700 78
2006-08-29 06:43:48 51°14.328 2°55.139 13.3 301 14.5 100700 78
2006-08-29 06:43:53 51°14.335 2°55.124 14.4 330 14.5 100710 77
2006-08-29 06:43:58 51°14.342 2°55.109 14.9 328 14.5 100710 77
2006-08-29 06:44:02 51°14.348 2°55.096 14.4 329 14.4 100700 76
2006-08-29 06:44:07 51°14.355 2°55.081 15.2 286 14.4 100700 76
2006-08-29 06:44:12 51°14.363 2°55.065 14.1 327 14.5 100720 76
2006-08-29 06:44:18 51°14.372 2°55.046 13.7 328 14.5 100720 76
2006-08-29 06:44:22 51°14.379 2°55.033 13.2 327 14.5 100700 76
2006-08-29 06:44:28 51°14.39 2°55.015 13.8 325 14.5 100700 76
2006-08-29 06:44:32 51°14.397 2°55.004 14.1 325 14.5 100720 75
2006-08-29 06:44:38 51°14.409 2°54.986 13.2 324 14.5 100720 75
2006-08-29 06:44:42 51°14.417 2°54.976 13.2 324 14.5 100700 74
2006-08-29 06:44:48 51°14.428 2°54.96 12.7 303 14.5 100700 74
2006-08-29 06:44:52 51°14.437 2°54.949 12.7 321 14.5 100710 74
2006-08-29 06:44:58 51°14.45 2°54.934 12.1 308 14.5 100710 74
2006-08-29 06:45:03 51°14.46 2°54.923 12.4 320 14.5 100700 74
2006-08-29 06:45:08 51°14.472 2°54.911 12.8 283 14.5 100700 74
2006-08-29 06:45:12 51°14.481 2°54.902 11.5 318 14.6 100700 74
2006-08-29 06:45:18 51°14.495 2°54.888 12.2 305 14.6 100700 74
2006-08-29 06:45:23 51°14.506 2°54.878 12.1 319 14.6 100710 75
2006-08-29 06:45:28 51°14.517 2°54.866 12.3 304 14.6 100710 75
2006-08-29 06:45:33 51°14.529 2°54.854 12.3 319 14.6 100710 74
2006-08-29 06:45:38 51°14.54 2°54.843 11.9 308 14.6 100710 74
2006-08-29 06:45:43 51°14.552 2°54.831 13 321 14.6 100710 75
2006-08-29 06:45:47 51°14.562 2°54.822 13.2 306 14.6 100710 75
2006-08-29 06:45:53 51°14.577 2°54.807 13.5 316 14.6 100700 75
2006-08-29 06:45:58 51°14.59 2°54.796 15.3 305 14.6 100700 75
2006-08-29 06:46:02 51°14.6 2°54.786 14.5 319 14.7 100700 75
2006-08-29 06:46:07 51°14.613 2°54.774 15 279 14.7 100700 75
2006-08-29 06:46:12 51°14.627 2°54.762 14.5 319 14.7 100700 76
2006-08-29 06:46:18 51°14.642 2°54.748 15 308 14.7 100700 76
2006-08-29 06:46:22 51°14.653 2°54.738 14.6 317 14.8 100700 76
2006-08-29 06:46:27 51°14.667 2°54.725 14.8 305 14.8 100700 76
2006-08-29 06:46:32 51°14.679 2°54.713 14.3 318 14.8 100690 76
2006-08-29 06:46:38 51°14.696 2°54.697 14.3 310 14.8 100690 76
2006-08-29 06:46:42 51°14.707 2°54.687 14.8 316 14.8 100680 76
2006-08-29 06:46:48 51°14.723 2°54.672 14.4 305 14.8 100680 76
2006-08-29 06:46:53 51°14.737 2°54.659 14.2 316 14.8 100680 76
2006-08-29 06:46:58 51°14.751 2°54.646 12.7 303 14.8 100680 76
2006-08-29 06:47:02 51°14.761 2°54.636 13.3 318 14.8 100690 76
2006-08-29 06:47:08 51°14.778 2°54.62 16 285 14.8 100690 76
2006-08-29 06:47:12 51°14.789 2°54.609 14.5 318 14.9 100680 75
2006-08-29 06:47:18 51°14.805 2°54.594 14.8 303 14.9 100680 75
2006-08-29 06:47:22 51°14.817 2°54.583 14.8 317 14.9 100680 76
2006-08-29 06:47:28 51°14.833 2°54.569 15.3 304 14.9 100680 76
2006-08-29 06:47:32 51°14.845 2°54.558 14.4 317 15 100690 76
2006-08-29 06:47:38 51°14.861 2°54.542 14.4 302 15 100690 76
2006-08-29 06:47:42 51°14.871 2°54.531 14.5 318 15 100690 76
2006-08-29 06:47:48 51°14.888 2°54.516 14.9 302 15 100690 76
2006-08-29 06:47:51 51°14.895 2°54.508 14.1 317 15 100690 76
2006-08-29 06:47:58 51°14.915 2°54.49 14.6 301 15 100690 76
2006-08-29 06:48:03 51°14.928 2°54.477 13.8 317 15 100690 75
2006-08-29 06:48:08 51°14.942 2°54.464 12.8 286 15 100690 75
2006-08-29 06:48:12 51°14.952 2°54.454 13.6 316 15 100690 75
2006-08-29 06:48:18 51°14.97 2°54.439 14.9 305 15 100690 75
2006-08-29 06:48:22 51°14.981 2°54.429 14.6 317 15.1 100690 75
2006-08-29 06:48:28 51°14.996 2°54.414 15.4 307 15.1 100690 75
2006-08-29 06:48:32 51°15.007 2°54.404 16.1 316 15.1 100690 75
2006-08-29 06:48:38 51°15.023 2°54.388 13.9 307 15.1 100690 75
2006-08-29 06:48:42 51°15.034 2°54.377 15.4 315 15.1 100700 76
2006-08-29 06:48:48 51°15.05 2°54.363 16.1 306 15.1 100700 76
2006-08-29 06:48:52 51°15.062 2°54.353 16.3 316 15.1 100690 76
2006-08-29 06:48:58 51°15.078 2°54.338 14.5 308 15.1 100690 76
2006-08-29 06:49:02 51°15.089 2°54.328 14.7 317 15.2 100680 76
2006-08-29 06:49:08 51°15.105 2°54.313 15.3 284 15.2 100680 76
2006-08-29 06:49:12 51°15.116 2°54.303 16.4 318 15.2 100670 75
2006-08-29 06:49:18 51°15.132 2°54.287 14.3 308 15.2 100670 75
2006-08-29 06:49:22 51°15.143 2°54.276 15.2 317 15.2 100680 76
2006-08-29 06:49:28 51°15.159 2°54.26 16.1 309 15.2 100680 76
2006-08-29 06:49:32 51°15.169 2°54.25 16.5 318 15.2 100690 76
2006-08-29 06:49:37 51°15.183 2°54.236 14.9 305 15.2 100690 76
2006-08-29 06:49:42 51°15.196 2°54.223 15.1 319 15.2 100680 75
2006-08-29 06:49:48 51°15.212 2°54.207 15 308 15.2 100680 75
2006-08-29 06:49:52 51°15.222 2°54.197 15.8 315 15.3 100680 75
2006-08-29 06:49:57 51°15.237 2°54.183 16.1 303 15.3 100680 75
2006-08-29 06:50:02 51°15.249 2°54.171 15.6 316 15.3 100690 75
2006-08-29 06:50:08 51°15.266 2°54.155 15.6 279 15.3 100690 75
2006-08-29 06:50:13 51°15.279 2°54.142 15.4 315 15.3 100680 75
2006-08-29 06:50:18 51°15.293 2°54.129 14.6 306 15.3 100680 75
2006-08-29 06:50:22 51°15.304 2°54.12 15.1 319 15.3 100670 75
2006-08-29 06:50:25 51°15.312 2°54.112 13.8 308 15.3 100670 75
2006-08-29 06:50:33 51°15.334 2°54.092 14.7 320 15.3 100680 75
2006-08-29 06:50:38 51°15.348 2°54.078 15.7 305 15.3 100680 75
2006-08-29 06:50:41 51°15.356 2°54.07 16.6 320 15.3 100680 76
2006-08-29 06:50:48 51°15.375 2°54.051 16.4 306 15.3 100680 76
2006-08-29 06:50:52 51°15.386 2°54.04 16.2 319 15.4 100690 77
2006-08-29 06:50:58 51°15.401 2°54.024 16.9 304 15.4 100690 77
2006-08-29 06:51:03 51°15.415 2°54.012 14.8 320 15.4 100690 77
2006-08-29 06:51:08 51°15.429 2°53.997 17.2 281 15.4 100690 77
2006-08-29 06:51:13 51°15.443 2°53.985 15.8 321 15.4 100680 76
2006-08-29 06:51:18 51°15.456 2°53.97 15.8 308 15.4 100680 76
2006-08-29 06:51:22 51°15.467 2°53.96 14.5 318 15.4 100670 76
2006-08-29 06:51:28 51°15.483 2°53.944 14.8 305 15.4 100670 76
2006-08-29 06:51:33 51°15.497 2°53.931 15.4 319 15.4 100680 76
2006-08-29 06:51:38 51°15.511 2°53.918 16.2 302 15.4 100680 76
2006-08-29 06:51:43 51°15.524 2°53.906 15 318 15.3 100690 75
2006-08-29 06:51:48 51°15.538 2°53.892 14.8 306 15.3 100690 75
2006-08-29 06:51:53 51°15.551 2°53.88 14.7 316 15.4 100690 76
2006-08-29 06:51:57 51°15.563 2°53.87 13.9 307 15.4 100690 76
2006-08-29 06:52:02 51°15.576 2°53.858 14.6 320 15.4 100690 76
2006-08-29 06:52:08 51°15.593 2°53.843 16.4 280 15.4 100690 76
2006-08-29 06:52:12 51°15.604 2°53.832 16.3 317 15.3 100680 75
2006-08-29 06:52:18 51°15.62 2°53.817 15.8 304 15.3 100680 75
2006-08-29 06:52:22 51°15.631 2°53.807 14.5 318 15.4 100680 75
2006-08-29 06:52:28 51°15.648 2°53.791 14.9 302 15.4 100680 75
2006-08-29 06:52:32 51°15.659 2°53.781 14.7 316 15.4 100690 76
2006-08-29 06:52:38 51°15.674 2°53.765 15.3 309 15.4 100690 76
2006-08-29 06:52:42 51°15.684 2°53.755 15.9 319 15.4 100670 75
2006-08-29 06:52:48 51°15.701 2°53.738 15.2 307 15.4 100670 75
2006-08-29 06:52:52 51°15.711 2°53.727 15.8 317 15.4 100690 75
2006-08-29 06:52:58 51°15.727 2°53.711 15.3 308 15.4 100690 75
2006-08-29 06:53:02 51°15.738 2°53.701 16.2 318 15.4 100680 75
2006-08-29 06:53:08 51°15.755 2°53.685 15.9 282 15.4 100680 75
2006-08-29 06:53:12 51°15.766 2°53.674 15 316 15.4 100680 75
2006-08-29 06:53:18 51°15.782 2°53.66 14.4 306 15.4 100680 75
2006-08-29 06:53:23 51°15.796 2°53.649 14.4 315 15.4 100680 76
2006-08-29 06:53:28 51°15.811 2°53.639 13.8 301 15.4 100680 76
2006-08-29 06:53:33 51°15.826 2°53.629 14.1 316 15.4 100670 75
2006-08-29 06:53:38 51°15.841 2°53.619 13.2 307 15.4 100670 75
2006-08-29 06:53:43 51°15.856 2°53.61 13.5 20 15.4 100680 74
2006-08-29 06:53:48 51°15.871 2°53.601 14.2 304 15.4 100680 74
2006-08-29 06:53:53 51°15.886 2°53.594 13.8 316 15.4 100680 74
2006-08-29 06:53:57 51°15.899 2°53.589 13.7 304 15.4 100680 74
2006-08-29 06:54:02 51°15.913 2°53.582 13.8 25 15.4 100690 74
2006-08-29 06:54:08 51°15.933 2°53.575 13.6 285 15.4 100690 74
2006-08-29 06:54:12 51°15.945 2°53.571 11.5 24 15.4 100680 74
2006-08-29 06:54:18 51°15.963 2°53.566 13.8 302 15.4 100680 74
2006-08-29 06:54:22 51°15.975 2°53.563 13.2 26 15.4 100680 75
2006-08-29 06:54:28 51°15.995 2°53.559 12.2 306 15.4 100680 75
2006-08-29 06:54:33 51°16.009 2°53.556 12.9 24 15.5 100680 74
2006-08-29 06:54:38 51°16.025 2°53.553 12.9 303 15.5 100680 74
2006-08-29 06:54:42 51°16.038 2°53.551 11.4 28 15.5 100690 74
2006-08-29 06:54:48 51°16.055 2°53.548 13.2 310 15.5 100690 74
2006-08-29 06:54:53 51°16.072 2°53.546 12.5 21 15.5 100670 74
2006-08-29 06:54:58 51°16.087 2°53.544 13.1 301 15.5 100670 74
2006-08-29 06:55:02 51°16.1 2°53.542 11.4 22 15.5 100690 75
2006-08-29 06:55:08 51°16.118 2°53.539 13 285 15.5 100690 75
2006-08-29 06:55:13 51°16.134 2°53.537 13.8 23 15.6 100680 75
2006-08-29 06:55:18 51°16.15 2°53.534 15.3 304 15.6 100680 75
2006-08-29 06:55:21 51°16.159 2°53.531 14.7 28 15.6 100670 75
2006-08-29 06:55:28 51°16.182 2°53.525 15.2 307 15.6 100670 75
2006-08-29 06:55:33 51°16.196 2°53.521 14.2 24 15.6 100690 75
2006-08-29 06:55:38 51°16.212 2°53.517 13.7 310 15.6 100690 75
2006-08-29 06:55:42 51°16.224 2°53.514 15.4 26 15.6 100680 75
2006-08-29 06:55:48 51°16.244 2°53.509 14.4 303 15.6 100680 75
2006-08-29 06:55:53 51°16.259 2°53.505 13.4 22 15.6 100660 75
2006-08-29 06:55:58 51°16.275 2°53.502 14.7 306 15.6 100660 75
2006-08-29 06:56:03 51°16.291 2°53.498 14.6 27 15.6 100680 75
2006-08-29 06:56:08 51°16.305 2°53.494 14.8 309 15.6 100680 75
2006-08-29 06:56:12 51°16.318 2°53.491 14.7 20 15.6 100670 76
2006-08-29 06:56:18 51°16.338 2°53.486 14.5 302 15.6 100670 76
2006-08-29 06:56:22 51°16.35 2°53.483 15 24 15.7 100670 76
2006-08-29 06:56:28 51°16.369 2°53.479 13.9 307 15.7 100670 76
2006-08-29 06:56:33 51°16.385 2°53.475 14.4 27 15.7 100660 75
2006-08-29 06:56:37 51°16.398 2°53.472 14.7 303 15.7 100660 75
2006-08-29 06:56:43 51°16.416 2°53.468 14.5 24 15.6 100660 74
2006-08-29 06:56:48 51°16.433 2°53.464 15.3 305 15.6 100660 74
2006-08-29 06:56:53 51°16.449 2°53.461 14.9 22 15.6 100670 73
2006-08-29 06:56:58 51°16.464 2°53.458 14.3 306 15.6 100670 73
2006-08-29 06:57:02 51°16.476 2°53.455 13.5 22 15.6 100660 72
2006-08-29 06:57:08 51°16.496 2°53.449 12.4 307 15.6 100660 72
2006-08-29 06:57:13 51°16.511 2°53.446 14.8 23 15.6 100670 72
2006-08-29 06:57:18 51°16.527 2°53.442 14.9 305 15.6 100670 72
2006-08-29 06:57:22 51°16.539 2°53.439 13.7 21 15.6 100670 72
2006-08-29 06:57:28 51°16.559 2°53.433 13.1 306 15.6 100670 72
2006-08-29 06:57:33 51°16.574 2°53.43 14 27 15.6 100690 72
2006-08-29 06:57:38 51°16.59 2°53.425 13.5 308 15.6 100690 72
2006-08-29 06:57:42 51°16.603 2°53.423 14.6 24 15.6 100680 72
2006-08-29 06:57:48 51°16.622 2°53.42 15.7 307 15.6 100680 72
2006-08-29 06:57:53 51°16.637 2°53.416 14.8 21 15.6 100680 72
2006-08-29 06:57:58 51°16.654 2°53.412 14.7 309 15.6 100680 72
2006-08-29 06:58:03 51°16.67 2°53.408 16.6 24 15.7 100670 72
2006-08-29 06:58:08 51°16.685 2°53.403 15.3 306 15.7 100670 72
2006-08-29 06:58:13 51°16.701 2°53.399 15.1 24 15.7 100670 72
2006-08-29 06:58:18 51°16.717 2°53.395 14.8 306 15.7 100670 72
2006-08-29 06:58:22 51°16.729 2°53.391 13.6 23 15.6 100670 72
2006-08-29 06:58:28 51°16.749 2°53.387 15.8 306 15.6 100670 72
2006-08-29 06:58:32 51°16.763 2°53.383 14.8 26 15.6 100660 71
2006-08-29 06:58:38 51°16.78 2°53.378 14.5 306 15.6 100660 71
2006-08-29 06:58:42 51°16.793 2°53.375 14.6 22 15.6 100660 71
2006-08-29 06:58:48 51°16.813 2°53.371 14 308 15.6 100660 71
2006-08-29 06:58:53 51°16.828 2°53.367 13.5 25 15.6 100670 71
2006-08-29 06:58:58 51°16.844 2°53.363 14.2 308 15.6 100670 71
2006-08-29 06:59:02 51°16.857 2°53.36 14.2 23 15.6 100670 71
2006-08-29 06:59:08 51°16.876 2°53.355 13.9 303 15.6 100670 71
2006-08-29 06:59:12 51°16.888 2°53.352 14.2 24 15.6 100680 71
2006-08-29 06:59:18 51°16.907 2°53.348 14.2 301 15.6 100680 71
2006-08-29 06:59:22 51°16.919 2°53.344 13.9 29 15.6 100680 71
2006-08-29 06:59:28 51°16.938 2°53.341 14.1 304 15.6 100680 71
2006-08-29 06:59:33 51°16.955 2°53.336 13.3 26 15.6 100680 71
2006-08-29 06:59:38 51°16.97 2°53.331 14.3 306 15.6 100680 71
2006-08-29 06:59:42 51°16.982 2°53.328 15.7 26 15.6 100670 70
2006-08-29 06:59:48 51°17.001 2°53.325 13.7 305 15.6 100670 70
2006-08-29 06:59:53 51°17.015 2°53.32 14.4 27 15.6 100670 71
2006-08-29 06:59:58 51°17.032 2°53.318 16.2 306 15.6 100670 71
2006-08-29 07:00:02 51°17.044 2°53.316 15 25 15.7 100670 72
2006-08-29 07:00:08 51°17.064 2°53.313 13.8 304 15.7 100670 72
2006-08-29 07:00:12 51°17.076 2°53.312 13.4 25 15.7 100670 72
2006-08-29 07:00:18 51°17.093 2°53.312 13.1 307 15.7 100670 72
2006-08-29 07:00:23 51°17.109 2°53.311 14.6 25 15.6 100680 72
2006-08-29 07:00:28 51°17.124 2°53.31 14.3 307 15.6 100680 72
2006-08-29 07:00:33 51°17.141 2°53.31 16.2 21 15.7 100670 72
2006-08-29 07:00:38 51°17.156 2°53.309 14.3 306 15.7 100670 72
2006-08-29 07:00:42 51°17.168 2°53.309 14.4 27 15.7 100690 73
2006-08-29 07:00:48 51°17.188 2°53.308 13 309 15.7 100690 73
2006-08-29 07:00:52 51°17.2 2°53.307 14.4 24 15.7 100670 73
2006-08-29 07:00:58 51°17.22 2°53.307 14.5 305 15.7 100670 73
2006-08-29 07:01:03 51°17.234 2°53.307 15.2 24 15.7 100660 72
2006-08-29 07:01:08 51°17.249 2°53.306 14.3 305 15.7 100660 72
2006-08-29 07:01:12 51°17.262 2°53.306 15 24 15.7 100670 72
2006-08-29 07:01:18 51°17.281 2°53.306 14.9 304 15.7 100670 72
2006-08-29 07:01:23 51°17.297 2°53.307 15 27 15.6 100690 71
2006-08-29 07:01:28 51°17.313 2°53.306 14.4 304 15.6 100690 71
2006-08-29 07:01:33 51°17.328 2°53.31 13.9 26 15.6 100670 72
2006-08-29 07:01:38 51°17.344 2°53.31 13.8 306 15.6 100670 72
2006-08-29 07:01:42 51°17.357 2°53.312 14.2 27 15.6 100660 71
2006-08-29 07:01:48 51°17.376 2°53.317 14.1 307 15.6 100660 71
2006-08-29 07:01:53 51°17.392 2°53.323 13 27 15.6 100670 71
2006-08-29 07:01:58 51°17.407 2°53.328 12.5 305 15.6 100670 71
2006-08-29 07:02:01 51°17.417 2°53.333 12.4 21 15.6 100670 71
2006-08-29 07:02:08 51°17.438 2°53.344 11.8 305 15.6 100670 71
2006-08-29 07:02:13 51°17.454 2°53.353 12.7 21 15.6 100670 71
2006-08-29 07:02:18 51°17.468 2°53.36 11.6 303 15.6 100670 71
2006-08-29 07:02:23 51°17.483 2°53.37 11.8 244 15.6 100680 71
2006-08-29 07:02:28 51°17.499 2°53.379 9.8 302 15.6 100680 71
2006-08-29 07:02:32 51°17.51 2°53.387 10.3 21 15.6 100690 72
2006-08-29 07:02:38 51°17.528 2°53.401 10.8 305 15.6 100690 72
2006-08-29 07:02:43 51°17.543 2°53.41 12.3 27 15.6 100680 72
2006-08-29 07:02:48 51°17.559 2°53.419 11.4 306 15.6 100680 72
2006-08-29 07:02:52 51°17.571 2°53.428 11.5 20 15.6 100690 72
2006-08-29 07:02:58 51°17.587 2°53.439 11 302 15.6 100690 72
2006-08-29 07:03:03 51°17.603 2°53.449 11.7 24 15.7 100700 72
2006-08-29 07:03:08 51°17.618 2°53.458 11.3 303 15.7 100700 72
2006-08-29 07:03:12 51°17.629 2°53.467 12.5 23 15.7 100690 73
2006-08-29 07:03:18 51°17.648 2°53.479 14.7 306 15.7 100690 73
2006-08-29 07:03:22 51°17.659 2°53.488 12.9 27 15.7 100690 74
2006-08-29 07:03:28 51°17.676 2°53.498 13.4 301 15.7 100690 74
2006-08-29 07:03:33 51°17.692 2°53.509 11.9 29 15.7 100690 73
2006-08-29 07:03:38 51°17.706 2°53.519 11.7 308 15.7 100690 73
2006-08-29 07:03:42 51°17.718 2°53.528 13 25 15.7 100700 73
2006-08-29 07:03:48 51°17.735 2°53.54 11.9 309 15.7 100700 73
2006-08-29 07:03:53 51°17.749 2°53.549 12.2 24 15.7 100680 73
2006-08-29 07:03:58 51°17.764 2°53.561 11.7 307 15.7 100680 73
2006-08-29 07:04:02 51°17.775 2°53.569 11 28 15.7 100680 72
2006-08-29 07:04:08 51°17.793 2°53.583 9.9 286 15.7 100680 72
2006-08-29 07:04:13 51°17.808 2°53.594 10.7 22 15.7 100690 73
2006-08-29 07:04:18 51°17.823 2°53.604 9.9 307 15.7 100690 73
2006-08-29 07:04:22 51°17.834 2°53.614 10.6 26 15.6 100700 73
2006-08-29 07:04:27 51°17.847 2°53.623 11.8 308 15.6 100700 73
2006-08-29 07:04:32 51°17.862 2°53.636 11.2 23 15.7 100700 73
2006-08-29 07:04:38 51°17.88 2°53.648 10.5 308 15.7 100700 73
2006-08-29 07:04:42 51°17.892 2°53.655 11.4 27 15.7 100700 73
2006-08-29 07:04:47 51°17.906 2°53.666 11.3 306 15.7 100700 73
2006-08-29 07:04:53 51°17.924 2°53.679 11.6 24 15.7 100710 74
2006-08-29 07:04:58 51°17.939 2°53.688 11.8 305 15.7 100710 74
2006-08-29 07:05:03 51°17.953 2°53.698 11.2 26 15.7 100690 74
2006-08-29 07:05:08 51°17.967 2°53.709 14.8 301 15.7 100690 74
2006-08-29 07:05:13 51°17.982 2°53.72 13 24 15.7 100690 74
2006-08-29 07:05:18 51°17.997 2°53.732 12.1 305 15.7 100690 74
2006-08-29 07:05:21 51°18.005 2°53.735 12.4 21 15.7 100690 74
2006-08-29 07:05:28 51°18.026 2°53.749 13.1 309 15.7 100690 74
2006-08-29 07:05:32 51°18.037 2°53.758 11.8 22 15.7 100690 73
2006-08-29 07:05:38 51°18.055 2°53.769 13.3 305 15.7 100690 73
2006-08-29 07:05:42 51°18.066 2°53.776 12 24 15.7 100690 73
2006-08-29 07:05:47 51°18.081 2°53.788 12.6 305 15.7 100690 73
2006-08-29 07:05:52 51°18.096 2°53.798 12.6 25 15.7 100680 74
2006-08-29 07:05:58 51°18.113 2°53.81 13.9 304 15.7 100680 74
2006-08-29 07:06:02 51°18.124 2°53.817 14.4 23 15.7 100690 74
2006-08-29 07:06:08 51°18.142 2°53.83 12.9 282 15.7 100690 74
2006-08-29 07:06:13 51°18.156 2°53.84 13.5 24 15.7 100700 74
2006-08-29 07:06:18 51°18.172 2°53.85 12.3 306 15.7 100700 74
2006-08-29 07:06:22 51°18.183 2°53.86 12.2 22 15.7 100680 74
2006-08-29 07:06:28 51°18.199 2°53.871 12.5 309 15.7 100680 74
2006-08-29 07:06:33 51°18.214 2°53.88 11.8 19 15.7 100680 73
2006-08-29 07:06:37 51°18.225 2°53.889 13 302 15.7 100680 73
2006-08-29 07:06:42 51°18.241 2°53.899 11.3 28 15.7 100680 73
2006-08-29 07:06:48 51°18.258 2°53.911 14.4 306 15.7 100680 73
2006-08-29 07:06:53 51°18.273 2°53.923 13.1 24 15.7 100680 73
2006-08-29 07:06:58 51°18.288 2°53.93 13.1 303 15.7 100680 73
2006-08-29 07:07:02 51°18.3 2°53.936 12.2 23 15.7 100680 73
2006-08-29 07:07:08 51°18.317 2°53.948 13.4 308 15.7 100680 73
2006-08-29 07:07:12 51°18.328 2°53.956 12.6 26 15.7 100700 73
2006-08-29 07:07:18 51°18.346 2°53.97 13.1 308 15.7 100700 73
2006-08-29 07:07:23 51°18.361 2°53.979 14.2 22 15.6 100680 73
2006-08-29 07:07:28 51°18.375 2°53.989 12.9 305 15.6 100680 73
2006-08-29 07:07:33 51°18.39 2°53.997 12.9 25 15.6 100670 73
2006-08-29 07:07:38 51°18.404 2°54.009 13.4 308 15.6 100670 73
2006-08-29 07:07:43 51°18.42 2°54.018 13.7 23 15.7 100690 72
2006-08-29 07:07:48 51°18.434 2°54.028 13 308 15.7 100690 72
2006-08-29 07:07:53 51°18.448 2°54.037 11.6 25 15.6 100680 72
2006-08-29 07:07:57 51°18.459 2°54.047 11.7 305 15.6 100680 72
2006-08-29 07:08:02 51°18.474 2°54.059 11.6 246 15.6 100690 72
2006-08-29 07:08:08 51°18.492 2°54.072 11.9 276 15.6 100690 72
2006-08-29 07:08:13 51°18.506 2°54.082 12.5 24 15.6 100680 72
2006-08-29 07:08:18 51°18.52 2°54.094 12.3 303 15.6 100680 72
2006-08-29 07:08:22 51°18.532 2°54.104 13.9 246 15.6 100700 72
2006-08-29 07:08:28 51°18.548 2°54.114 12 304 15.6 100700 72
2006-08-29 07:08:33 51°18.562 2°54.128 11.5 23 15.6 100700 72
2006-08-29 07:08:38 51°18.578 2°54.14 11.9 303 15.6 100700 72
2006-08-29 07:08:42 51°18.589 2°54.149 12.2 247 15.7 100690 72
2006-08-29 07:08:48 51°18.604 2°54.16 12.1 308 15.7 100690 72
2006-08-29 07:08:53 51°18.618 2°54.171 10.7 19 15.7 100680 72
2006-08-29 07:08:58 51°18.633 2°54.182 12 307 15.7 100680 72
2006-08-29 07:09:02 51°18.643 2°54.191 12 20 15.7 100710 72
2006-08-29 07:09:08 51°18.66 2°54.205 10.6 309 15.7 100710 72
2006-08-29 07:09:13 51°18.675 2°54.216 12.8 22 15.7 100690 72
2006-08-29 07:09:18 51°18.688 2°54.226 10.9 309 15.7 100690 72
2006-08-29 07:09:22 51°18.7 2°54.235 10.5 25 15.7 100700 72
2006-08-29 07:09:28 51°18.717 2°54.248 10.2 307 15.7 100700 72
2006-08-29 07:09:32 51°18.729 2°54.257 9.8 23 15.7 100690 72
2006-08-29 07:09:38 51°18.745 2°54.27 10.4 301 15.7 100690 72
2006-08-29 07:09:41 51°18.754 2°54.276 11 29 15.7 100690 72
2006-08-29 07:09:48 51°18.774 2°54.293 12 305 15.7 100690 72
2006-08-29 07:09:52 51°18.785 2°54.302 13.3 25 15.7 100690 73
2006-08-29 07:09:58 51°18.803 2°54.314 12.8 301 15.7 100690 73
2006-08-29 07:10:03 51°18.816 2°54.325 14.2 27 15.8 100700 74
2006-08-29 07:10:08 51°18.83 2°54.337 12.3 278 15.8 100700 74
2006-08-29 07:10:12 51°18.841 2°54.347 14 24 15.8 100690 73
2006-08-29 07:10:18 51°18.858 2°54.362 13.5 305 15.8 100690 73
2006-08-29 07:10:23 51°18.872 2°54.375 14 27 15.8 100690 73
2006-08-29 07:10:28 51°18.886 2°54.386 14.2 303 15.8 100690 73
2006-08-29 07:10:33 51°18.901 2°54.399 13.9 21 15.8 100680 73
2006-08-29 07:10:38 51°18.914 2°54.411 11.4 306 15.8 100680 73
2006-08-29 07:10:42 51°18.925 2°54.422 12.5 249 15.8 100670 73
2006-08-29 07:10:47 51°18.939 2°54.435 10.7 305 15.8 100670 73
2006-08-29 07:10:53 51°18.955 2°54.448 11 243 15.8 100670 72
2006-08-29 07:10:58 51°18.969 2°54.462 11.9 301 15.8 100670 72
2006-08-29 07:11:02 51°18.98 2°54.472 11.2 26 15.7 100680 71
2006-08-29 07:11:07 51°18.993 2°54.487 13.2 277 15.7 100680 71
2006-08-29 07:11:12 51°19.006 2°54.5 10.1 245 15.7 100690 71
2006-08-29 07:11:18 51°19.022 2°54.518 9.9 301 15.7 100690 71
2006-08-29 07:11:23 51°19.035 2°54.532 10.4 246 15.7 100700 71
2006-08-29 07:11:27 51°19.046 2°54.544 10.8 301 15.7 100700 71
2006-08-29 07:11:32 51°19.058 2°54.558 11.4 248 15.7 100690 71
2006-08-29 07:11:38 51°19.074 2°54.577 10.8 306 15.7 100690 71
2006-08-29 07:11:43 51°19.086 2°54.591 10.7 20 15.7 100700 71
2006-08-29 07:11:48 51°19.099 2°54.605 11.4 301 15.7 100700 71
2006-08-29 07:11:52 51°19.109 2°54.618 9.9 244 15.7 100690 72
2006-08-29 07:11:58 51°19.125 2°54.636 10.5 304 15.7 100690 72
2006-08-29 07:12:02 51°19.135 2°54.647 9.5 250 15.7 100690 71
2006-08-29 07:12:08 51°19.15 2°54.666 12.1 304 15.7 100690 71
2006-08-29 07:12:12 51°19.161 2°54.677 9.4 249 15.7 100700 72
2006-08-29 07:12:18 51°19.176 2°54.695 10.7 304 15.7 100700 72
2006-08-29 07:12:23 51°19.188 2°54.71 9.7 28 15.7 100700 72
2006-08-29 07:12:28 51°19.202 2°54.724 11.5 308 15.7 100700 72
2006-08-29 07:12:33 51°19.214 2°54.74 9.6 21 15.7 100700 72
2006-08-29 07:12:38 51°19.227 2°54.754 11.4 311 15.7 100700 72
2006-08-29 07:12:42 51°19.236 2°54.768 10.5 21 15.7 100710 72
2006-08-29 07:12:48 51°19.252 2°54.786 11.9 308 15.7 100710 72
2006-08-29 07:12:53 51°19.264 2°54.8 12 22 15.7 100690 73
2006-08-29 07:12:58 51°19.277 2°54.816 10.6 302 15.7 100690 73
2006-08-29 07:13:02 51°19.287 2°54.828 11 244 15.8 100690 73
2006-08-29 07:13:08 51°19.302 2°54.845 10.2 280 15.8 100690 73
2006-08-29 07:13:12 51°19.312 2°54.858 10.3 23 15.8 100700 73
2006-08-29 07:13:18 51°19.327 2°54.876 10.3 302 15.8 100700 73
2006-08-29 07:13:22 51°19.338 2°54.89 10.2 244 15.8 100700 73
2006-08-29 07:13:28 51°19.353 2°54.907 10.5 304 15.8 100700 73
2006-08-29 07:13:32 51°19.363 2°54.92 11.6 20 15.8 100690 73
2006-08-29 07:13:38 51°19.378 2°54.937 11.4 300 15.8 100690 73
2006-08-29 07:13:43 51°19.392 2°54.954 11.7 250 15.8 100700 73
2006-08-29 07:13:48 51°19.404 2°54.966 9 309 15.8 100700 73
2006-08-29 07:13:53 51°19.416 2°54.983 8.6 25 15.7 100700 72
2006-08-29 07:13:58 51°19.43 2°54.997 11 309 15.7 100700 72
2006-08-29 07:14:02 51°19.44 2°55.01 11 26 15.7 100700 72
2006-08-29 07:14:08 51°19.456 2°55.026 12.9 284 15.7 100700 72
2006-08-29 07:14:13 51°19.468 2°55.043 12.6 24 15.7 100700 72
2006-08-29 07:14:18 51°19.481 2°55.057 11.5 303 15.7 100700 72
2006-08-29 07:14:22 51°19.492 2°55.07 11.3 27 15.7 100700 73
2006-08-29 07:14:28 51°19.507 2°55.087 13.7 301 15.7 100700 73
2006-08-29 07:14:33 51°19.52 2°55.103 12.3 27 15.7 100690 73
2006-08-29 07:14:37 51°19.531 2°55.115 11.6 304 15.7 100690 73
2006-08-29 07:14:43 51°19.546 2°55.132 12.4 245 15.7 100690 72
2006-08-29 07:14:48 51°19.559 2°55.146 10.9 306 15.7 100690 72
2006-08-29 07:14:53 51°19.571 2°55.162 11.3 246 15.7 100690 72
2006-08-29 07:14:58 51°19.584 2°55.176 10.1 303 15.7 100690 72
2006-08-29 07:15:02 51°19.595 2°55.187 10.6 245 15.7 100680 71
2006-08-29 07:15:07 51°19.608 2°55.202 10.7 306 15.7 100680 71
2006-08-29 07:15:13 51°19.623 2°55.221 10.3 26 15.7 100690 71
2006-08-29 07:15:18 51°19.637 2°55.236 10.5 303 15.7 100690 71
2006-08-29 07:15:22 51°19.646 2°55.248 10.9 22 15.7 100700 70
2006-08-29 07:15:28 51°19.662 2°55.265 10.1 300 15.7 100700 70
2006-08-29 07:15:33 51°19.676 2°55.279 10.9 24 15.7 100690 70
2006-08-29 07:15:38 51°19.688 2°55.294 10.4 307 15.7 100690 70
2006-08-29 07:15:42 51°19.699 2°55.307 9.9 21 15.7 100700 70
2006-08-29 07:15:48 51°19.715 2°55.325 9.6 302 15.7 100700 70
2006-08-29 07:15:53 51°19.729 2°55.339 11.6 26 15.7 100700 70
2006-08-29 07:15:58 51°19.741 2°55.354 10.7 300 15.7 100700 70
2006-08-29 07:16:03 51°19.755 2°55.368 11.8 24 15.7 100690 70
2006-08-29 07:16:08 51°19.767 2°55.383 9.2 280 15.7 100690 70
2006-08-29 07:16:12 51°19.778 2°55.397 9.8 24 15.7 100700 70
2006-08-29 07:16:18 51°19.793 2°55.414 11 307 15.7 100700 70
2006-08-29 07:16:22 51°19.803 2°55.429 11.4 24 15.7 100700 71
2006-08-29 07:16:28 51°19.817 2°55.446 10 306 15.7 100700 71
2006-08-29 07:16:33 51°19.83 2°55.462 11.1 22 15.7 100690 71
2006-08-29 07:16:38 51°19.841 2°55.479 12.4 301 15.7 100690 71
2006-08-29 07:16:42 51°19.851 2°55.492 11.4 247 15.8 100680 72
2006-08-29 07:16:48 51°19.865 2°55.513 12.9 303 15.8 100680 72
2006-08-29 07:16:53 51°19.877 2°55.53 12.4 248 15.8 100690 72
2006-08-29 07:16:57 51°19.887 2°55.542 11.5 302 15.8 100690 72
2006-08-29 07:17:02 51°19.9 2°55.557 10.1 247 15.8 100680 72
2006-08-29 07:17:07 51°19.912 2°55.574 12.6 305 15.8 100680 72
2006-08-29 07:17:13 51°19.926 2°55.592 11.7 247 15.8 100690 71
2006-08-29 07:17:18 51°19.939 2°55.607 13.5 307 15.8 100690 71
2006-08-29 07:17:23 51°19.951 2°55.624 12.7 249 15.8 100690 71
2006-08-29 07:17:28 51°19.963 2°55.64 11.8 306 15.8 100690 71
2006-08-29 07:17:33 51°19.975 2°55.657 11.7 250 15.8 100680 71
2006-08-29 07:17:38 51°19.987 2°55.675 11.7 310 15.8 100680 71
2006-08-29 07:17:42 51°19.996 2°55.687 11.5 21 15.8 100680 70
2006-08-29 07:17:48 51°20.011 2°55.708 10.8 302 15.8 100680 70
2006-08-29 07:17:52 51°20.022 2°55.721 12.6 251 15.8 100680 70
2006-08-29 07:17:58 51°20.035 2°55.739 9.3 303 15.8 100680 70
2006-08-29 07:18:02 51°20.044 2°55.752 11.7 248 15.8 100700 69
2006-08-29 07:18:08 51°20.059 2°55.773 12 284 15.8 100700 69
2006-08-29 07:18:12 51°20.069 2°55.785 12.4 19 15.8 100690 69
2006-08-29 07:18:18 51°20.084 2°55.806 11.8 302 15.8 100690 69
2006-08-29 07:18:23 51°20.096 2°55.821 11.7 253 15.8 100680 68
2006-08-29 07:18:28 51°20.107 2°55.839 10.8 308 15.8 100680 68
2006-08-29 07:18:32 51°20.117 2°55.852 10.9 251 15.8 100700 69
2006-08-29 07:18:38 51°20.131 2°55.871 9.4 307 15.8 100700 69
2006-08-29 07:18:43 51°20.144 2°55.886 10.7 247 15.8 100690 68
2006-08-29 07:18:48 51°20.155 2°55.903 10.9 306 15.8 100690 68
2006-08-29 07:18:52 51°20.165 2°55.916 10.8 249 15.8 100700 69
2006-08-29 07:18:58 51°20.181 2°55.934 9.4 303 15.8 100700 69
2006-08-29 07:19:02 51°20.19 2°55.949 12.2 252 15.8 100710 70
2006-08-29 07:19:08 51°20.205 2°55.969 12 303 15.8 100710 70
2006-08-29 07:19:13 51°20.216 2°55.983 11.1 250 15.8 100690 69
2006-08-29 07:19:18 51°20.229 2°55.999 11.6 308 15.8 100690 69
2006-08-29 07:19:23 51°20.242 2°56.017 11.1 250 15.9 100680 69
2006-08-29 07:19:28 51°20.254 2°56.031 9.7 300 15.9 100680 69
2006-08-29 07:19:33 51°20.267 2°56.046 10.9 249 15.9 100690 69
2006-08-29 07:19:38 51°20.279 2°56.062 12.2 307 15.9 100690 69
2006-08-29 07:19:42 51°20.289 2°56.076 10.8 251 15.9 100690 70
2006-08-29 07:19:47 51°20.3 2°56.091 12.7 307 15.9 100690 70
2006-08-29 07:19:53 51°20.316 2°56.11 9.9 20 15.9 100690 69
2006-08-29 07:19:58 51°20.327 2°56.127 9.3 305 15.9 100690 69
2006-08-29 07:20:02 51°20.337 2°56.138 12.1 252 15.9 100690 70
2006-08-29 07:20:07 51°20.349 2°56.157 10.9 280 15.9 100690 70
2006-08-29 07:20:12 51°20.361 2°56.172 11.7 255 15.9 100700 70
2006-08-29 07:20:18 51°20.375 2°56.193 9.1 301 15.9 100700 70
2006-08-29 07:20:23 51°20.387 2°56.209 8.9 252 15.9 100700 71
2006-08-29 07:20:27 51°20.396 2°56.223 8.1 304 15.9 100700 71
2006-08-29 07:20:32 51°20.407 2°56.24 9.3 247 15.9 100700 72
2006-08-29 07:20:38 51°20.421 2°56.262 8.5 308 15.9 100700 72
2006-08-29 07:20:43 51°20.431 2°56.281 9.4 252 15.9 100710 70
2006-08-29 07:20:48 51°20.442 2°56.3 9.6 304 15.9 100710 70
2006-08-29 07:20:52 51°20.452 2°56.312 8.5 250 15.9 100710 71
2006-08-29 07:20:58 51°20.463 2°56.335 9.9 307 15.9 100710 71
2006-08-29 07:21:02 51°20.472 2°56.35 9.3 251 16 100700 71
2006-08-29 07:21:08 51°20.484 2°56.373 9.2 302 16 100700 71
2006-08-29 07:21:12 51°20.492 2°56.388 9.3 253 16 100700 71
2006-08-29 07:21:18 51°20.505 2°56.409 8 302 16 100700 71
2006-08-29 07:21:23 51°20.515 2°56.429 10 255 16 100710 71
2006-08-29 07:21:28 51°20.526 2°56.448 8.8 308 16 100710 71
2006-08-29 07:21:33 51°20.537 2°56.466 9.7 250 16 100700 70
2006-08-29 07:21:38 51°20.547 2°56.485 10.7 309 16 100700 70
2006-08-29 07:21:42 51°20.556 2°56.499 9.6 249 16 100700 70
2006-08-29 07:21:48 51°20.568 2°56.522 10 306 16 100700 70
2006-08-29 07:21:53 51°20.579 2°56.541 8.3 249 16 100700 70
2006-08-29 07:21:58 51°20.59 2°56.559 7.4 310 16 100700 70
2006-08-29 07:22:02 51°20.599 2°56.573 11.9 251 16 100700 70
2006-08-29 07:22:08 51°20.612 2°56.596 11.6 283 16 100700 70
2006-08-29 07:22:12 51°20.62 2°56.61 10 250 16 100700 70
2006-08-29 07:22:18 51°20.633 2°56.634 9.6 304 16 100700 70
2006-08-29 07:22:22 51°20.642 2°56.648 10.8 253 16 100700 70
2006-08-29 07:22:28 51°20.654 2°56.67 10.9 304 16 100700 70
2006-08-29 07:22:33 51°20.665 2°56.689 11 21 16 100690 70
2006-08-29 07:22:38 51°20.675 2°56.709 11.8 305 16 100690 70
2006-08-29 07:22:42 51°20.684 2°56.724 11.3 251 16 100690 69
2006-08-29 07:22:48 51°20.695 2°56.746 10.8 304 16 100690 69
2006-08-29 07:22:53 51°20.706 2°56.763 9.9 250 16 100690 68
2006-08-29 07:22:58 51°20.716 2°56.784 9.5 303 16 100690 68
2006-08-29 07:23:02 51°20.725 2°56.798 9.7 248 16 100690 68
2006-08-29 07:23:08 51°20.737 2°56.82 9.9 304 16 100690 68
2006-08-29 07:23:12 51°20.745 2°56.837 9.3 251 16 100690 68
2006-08-29 07:23:17 51°20.756 2°56.855 10.2 302 16 100690 68
2006-08-29 07:23:22 51°20.766 2°56.874 9.9 249 16 100700 68
2006-08-29 07:23:28 51°20.779 2°56.896 10.4 302 16 100700 68
2006-08-29 07:23:33 51°20.788 2°56.916 10.6 253 16 100690 68
2006-08-29 07:23:38 51°20.799 2°56.934 10.1 301 16 100690 68
2006-08-29 07:23:42 51°20.806 2°56.95 8 255 16 100700 68
2006-08-29 07:23:47 51°20.817 2°56.968 8.3 308 16 100700 68
2006-08-29 07:23:53 51°20.829 2°56.993 9.5 251 16 100690 68
2006-08-29 07:23:58 51°20.84 2°57.012 8.6 309 16 100690 68
2006-08-29 07:24:02 51°20.848 2°57.028 8.9 254 16 100700 68
2006-08-29 07:24:08 51°20.862 2°57.049 8.4 281 16 100700 68
2006-08-29 07:24:12 51°20.869 2°57.065 9.1 256 16 100710 68
2006-08-29 07:24:17 51°20.879 2°57.084 7.1 304 16 100710 68
2006-08-29 07:24:22 51°20.89 2°57.103 9.3 251 16 100710 68
2006-08-29 07:24:27 51°20.9 2°57.123 7.1 308 16 100710 68
2006-08-29 07:24:33 51°20.913 2°57.146 8.5 21 16 100700 68
2006-08-29 07:24:38 51°20.924 2°57.164 8.7 307 16 100700 68
2006-08-29 07:24:41 51°20.93 2°57.176 9 248 16 100710 68
2006-08-29 07:24:48 51°20.946 2°57.2 7.4 304 16 100710 68
2006-08-29 07:24:53 51°20.956 2°57.22 8.9 246 16 100710 69
2006-08-29 07:24:58 51°20.966 2°57.239 9.3 302 16 100710 69
2006-08-29 07:25:02 51°20.975 2°57.254 10 250 16 100710 69
2006-08-29 07:25:07 51°20.986 2°57.273 9.3 285 16 100710 69
2006-08-29 07:25:13 51°20.999 2°57.295 10 19 16.1 100700 70
2006-08-29 07:25:18 51°21.009 2°57.315 9 302 16.1 100700 70
2006-08-29 07:25:23 51°21.02 2°57.334 7.8 250 16.1 100700 69
2006-08-29 07:25:28 51°21.03 2°57.355 11.4 302 16.1 100700 69
2006-08-29 07:25:32 51°21.037 2°57.371 7.9 252 16.1 100700 69
2006-08-29 07:25:37 51°21.048 2°57.389 8.5 304 16.1 100700 69
2006-08-29 07:25:42 51°21.058 2°57.406 10.1 253 16.1 100700 69
2006-08-29 07:25:48 51°21.07 2°57.429 8.2 304 16.1 100700 69
2006-08-29 07:25:52 51°21.079 2°57.443 9.3 250 16.1 100710 69
2006-08-29 07:25:58 51°21.091 2°57.465 8.8 301 16.1 100710 69
2006-08-29 07:26:01 51°21.097 2°57.476 9.3 253 16.1 100710 69
2006-08-29 07:26:08 51°21.111 2°57.502 8.2 285 16.1 100710 69
2006-08-29 07:26:13 51°21.121 2°57.523 9.3 252 16.1 100710 69
2006-08-29 07:26:18 51°21.132 2°57.541 9.4 308 16.1 100710 69
2006-08-29 07:26:23 51°21.141 2°57.562 9.1 251 16.1 100700 69
2006-08-29 07:26:28 51°21.153 2°57.579 10.7 302 16.1 100700 69
2006-08-29 07:26:33 51°21.162 2°57.6 8.8 250 16.1 100690 69
2006-08-29 07:26:38 51°21.172 2°57.618 10.7 308 16.1 100690 69
2006-08-29 07:26:42 51°21.181 2°57.633 9.5 254 16.1 100700 70
2006-08-29 07:26:48 51°21.193 2°57.657 9.8 306 16.1 100700 70
2006-08-29 07:26:53 51°21.203 2°57.676 9.4 254 16.1 100690 70
2006-08-29 07:26:58 51°21.214 2°57.696 10.5 305 16.1 100690 70
2006-08-29 07:27:02 51°21.221 2°57.712 8.7 253 16.1 100690 69
2006-08-29 07:27:08 51°21.233 2°57.735 7.9 284 16.1 100690 69
2006-08-29 07:27:12 51°21.242 2°57.749 9.1 252 16.1 100700 69
2006-08-29 07:27:18 51°21.254 2°57.774 8.4 305 16.1 100700 69
2006-08-29 07:27:21 51°21.259 2°57.785 10 256 16.1 100700 69
2006-08-29 07:27:28 51°21.273 2°57.811 9.5 306 16.1 100700 69
2006-08-29 07:27:33 51°21.284 2°57.83 8.3 248 16.1 100710 69
2006-08-29 07:27:38 51°21.294 2°57.851 9.1 307 16.1 100710 69
2006-08-29 07:27:42 51°21.303 2°57.865 7.4 244 16.1 100700 69
2006-08-29 07:27:48 51°21.314 2°57.889 7.9 309 16.1 100700 69
2006-08-29 07:27:52 51°21.323 2°57.903 8.5 249 16.1 100690 68
2006-08-29 07:27:58 51°21.335 2°57.928 10.1 308 16.1 100690 68
2006-08-29 07:28:03 51°21.345 2°57.946 9.1 247 16.1 100710 69
2006-08-29 07:28:08 51°21.355 2°57.966 10.2 304 16.1 100710 69
2006-08-29 07:28:12 51°21.364 2°57.981 9.8 251 16.2 100710 69
2006-08-29 07:28:18 51°21.375 2°58.004 9.6 310 16.2 100710 69
2006-08-29 07:28:22 51°21.383 2°58.02 9 24 16.2 100710 69
2006-08-29 07:28:28 51°21.396 2°58.042 10.1 311 16.2 100710 69
2006-08-29 07:28:33 51°21.405 2°58.062 9.4 249 16.2 100700 69
2006-08-29 07:28:38 51°21.417 2°58.081 8.9 310 16.2 100700 69
2006-08-29 07:28:42 51°21.424 2°58.097 10.3 252 16.2 100700 69
2006-08-29 07:28:48 51°21.437 2°58.119 8.3 303 16.2 100700 69
2006-08-29 07:28:53 51°21.447 2°58.14 9.7 248 16.2 100700 69
2006-08-29 07:28:58 51°21.458 2°58.158 7.9 304 16.2 100700 69
2006-08-29 07:29:02 51°21.466 2°58.175 8.9 248 16.2 100700 69
2006-08-29 07:29:07 51°21.477 2°58.192 8.4 284 16.2 100700 69
2006-08-29 07:29:13 51°21.488 2°58.216 9 21 16.1 100700 69
2006-08-29 07:29:18 51°21.499 2°58.235 8.5 306 16.1 100700 69
2006-08-29 07:29:22 51°21.507 2°58.251 8.8 249 16.2 100710 69
2006-08-29 07:29:28 51°21.519 2°58.273 8.2 303 16.2 100710 69
2006-08-29 07:29:32 51°21.527 2°58.289 9.4 250 16.1 100700 69
2006-08-29 07:29:38 51°21.539 2°58.315 9.4 308 16.1 100700 69
2006-08-29 07:29:43 51°21.549 2°58.333 9.7 250 16.1 100700 69
2006-08-29 07:29:48 51°21.559 2°58.353 10.4 306 16.1 100700 69
2006-08-29 07:29:52 51°21.568 2°58.367 10 252 16.1 100700 69
2006-08-29 07:29:58 51°21.581 2°58.39 8.6 309 16.1 100700 69
2006-08-29 07:30:03 51°21.592 2°58.408 9.2 253 16.1 100700 69
2006-08-29 07:30:08 51°21.602 2°58.427 8.9 309 16.1 100700 69
2006-08-29 07:30:12 51°21.611 2°58.443 8.7 249 16.1 100700 69
2006-08-29 07:30:18 51°21.624 2°58.464 7.1 304 16.1 100700 69
2006-08-29 07:30:23 51°21.634 2°58.483 8 251 16.1 100700 69
2006-08-29 07:30:28 51°21.646 2°58.5 6.5 309 16.1 100700 69
2006-08-29 07:30:33 51°21.657 2°58.518 9.7 252 16.1 100710 69
2006-08-29 07:30:38 51°21.669 2°58.536 8.8 305 16.1 100710 69
2006-08-29 07:30:42 51°21.678 2°58.548 9.7 251 16.1 100700 69
2006-08-29 07:30:48 51°21.692 2°58.57 9.7 306 16.1 100700 69
2006-08-29 07:30:52 51°21.703 2°58.581 8.1 248 16.1 100700 69
2006-08-29 07:30:58 51°21.715 2°58.603 8.9 308 16.1 100700 69
2006-08-29 07:31:02 51°21.726 2°58.614 7.8 246 16.1 100700 69
2006-08-29 07:31:08 51°21.739 2°58.638 11.2 278 16.1 100700 69
2006-08-29 07:31:13 51°21.75 2°58.652 10.2 248 16.1 100690 70
2006-08-29 07:31:18 51°21.761 2°58.671 11.1 309 16.1 100690 70
2006-08-29 07:31:23 51°21.773 2°58.688 8.7 244 16.1 100710 71
2006-08-29 07:31:28 51°21.784 2°58.704 9.2 305 16.1 100710 71
2006-08-29 07:31:33 51°21.796 2°58.722 11.1 20 16.1 100700 71
2006-08-29 07:31:38 51°21.807 2°58.74 10.7 304 16.1 100700 71
2006-08-29 07:31:43 51°21.819 2°58.756 10.5 23 16.1 100690 70
2006-08-29 07:31:48 51°21.831 2°58.774 11.3 308 16.1 100690 70
2006-08-29 07:31:52 51°21.84 2°58.787 9.9 245 16.1 100700 70
2006-08-29 07:31:58 51°21.853 2°58.81 10.2 302 16.1 100700 70
2006-08-29 07:32:02 51°21.863 2°58.821 10.7 247 16.1 100700 70
2006-08-29 07:32:08 51°21.877 2°58.843 9.1 304 16.1 100700 70
2006-08-29 07:32:12 51°21.887 2°58.856 10.8 248 16.1 100690 70
2006-08-29 07:32:18 51°21.9 2°58.876 9.4 309 16.1 100690 70
2006-08-29 07:32:23 51°21.912 2°58.894 9.1 245 16.1 100700 70
2006-08-29 07:32:28 51°21.923 2°58.912 9.5 304 16.1 100700 70
2006-08-29 07:32:31 51°21.931 2°58.922 10.7 21 16.1 100700 69
2006-08-29 07:32:38 51°21.946 2°58.947 9.2 307 16.1 100700 69
2006-08-29 07:32:43 51°21.958 2°58.962 9.6 252 16.1 100690 70
2006-08-29 07:32:48 51°21.97 2°58.982 9.7 305 16.1 100690 70
2006-08-29 07:32:53 51°21.981 2°58.996 9.5 20 16.1 100700 70
2006-08-29 07:32:58 51°21.992 2°59.016 10.4 303 16.1 100700 70
2006-08-29 07:33:02 51°22.003 2°59.029 9.1 249 16.1 100700 70
2006-08-29 07:33:08 51°22.015 2°59.051 10.5 283 16.1 100700 70
2006-08-29 07:33:12 51°22.026 2°59.063 7.7 25 16.1 100700 70
2006-08-29 07:33:18 51°22.039 2°59.085 8.7 302 16.1 100700 70
2006-08-29 07:33:23 51°22.051 2°59.104 8.8 249 16.1 100690 70
2006-08-29 07:33:28 51°22.062 2°59.121 9.5 304 16.1 100690 70
2006-08-29 07:33:33 51°22.073 2°59.138 10 248 16.2 100700 70
2006-08-29 07:33:38 51°22.084 2°59.156 9.5 304 16.2 100700 70
2006-08-29 07:33:43 51°22.096 2°59.173 9.7 251 16.2 100690 71
2006-08-29 07:33:48 51°22.109 2°59.191 10.7 306 16.2 100690 71
2006-08-29 07:33:53 51°22.12 2°59.208 11.1 247 16.2 100690 71
2006-08-29 07:33:58 51°22.131 2°59.225 9.6 306 16.2 100690 71
2006-08-29 07:34:03 51°22.144 2°59.241 10 21 16.2 100690 70
2006-08-29 07:34:08 51°22.155 2°59.256 9.1 306 16.2 100690 70
2006-08-29 07:34:13 51°22.168 2°59.273 8.5 23 16.2 100690 70
2006-08-29 07:34:18 51°22.18 2°59.29 9.8 302 16.2 100690 70
2006-08-29 07:34:23 51°22.191 2°59.307 9.1 25 16.2 100700 70
2006-08-29 07:34:28 51°22.204 2°59.324 10.3 307 16.2 100700 70
2006-08-29 07:34:33 51°22.216 2°59.34 10.2 252 16.2 100690 70
2006-08-29 07:34:38 51°22.228 2°59.358 9.7 303 16.2 100690 70
2006-08-29 07:34:42 51°22.237 2°59.371 9 248 16.2 100690 70
2006-08-29 07:34:48 51°22.25 2°59.392 8.4 301 16.2 100690 70
2006-08-29 07:34:52 51°22.262 2°59.404 9.8 25 16.2 100680 70
2006-08-29 07:34:58 51°22.276 2°59.423 8.6 304 16.2 100680 70
2006-08-29 07:35:02 51°22.285 2°59.435 11 22 16.2 100690 70
2006-08-29 07:35:08 51°22.3 2°59.453 11.2 283 16.2 100690 70
2006-08-29 07:35:12 51°22.311 2°59.463 11.1 23 16.2 100700 70
2006-08-29 07:35:18 51°22.327 2°59.479 11.6 301 16.2 100700 70
2006-08-29 07:35:22 51°22.337 2°59.492 11.3 22 16.2 100680 71
2006-08-29 07:35:28 51°22.354 2°59.505 11.9 301 16.2 100680 71
2006-08-29 07:35:33 51°22.367 2°59.52 11 26 16.2 100690 71
2006-08-29 07:35:38 51°22.381 2°59.53 11.5 305 16.2 100690 71
2006-08-29 07:35:42 51°22.391 2°59.543 10.8 21 16.2 100680 70
2006-08-29 07:35:48 51°22.408 2°59.557 11.7 304 16.2 100680 70
2006-08-29 07:35:52 51°22.419 2°59.567 10.2 21 16.2 100680 70
2006-08-29 07:35:58 51°22.436 2°59.583 11 304 16.2 100680 70
2006-08-29 07:36:03 51°22.449 2°59.595 10.7 243 16.2 100670 70
2006-08-29 07:36:08 51°22.463 2°59.607 12.2 306 16.2 100670 70
2006-08-29 07:36:13 51°22.476 2°59.621 9.9 22 16.1 100680 69
2006-08-29 07:36:18 51°22.491 2°59.632 10.8 302 16.1 100680 69
2006-08-29 07:36:23 51°22.504 2°59.645 10.5 245 16.1 100680 69
2006-08-29 07:36:28 51°22.518 2°59.658 12.4 308 16.1 100680 69
2006-08-29 07:36:32 51°22.529 2°59.668 12.4 21 16.1 100670 68
2006-08-29 07:36:38 51°22.545 2°59.682 12.2 307 16.1 100670 68
2006-08-29 07:36:43 51°22.56 2°59.694 12.1 20 16.1 100680 69
2006-08-29 07:36:48 51°22.573 2°59.707 11.7 302 16.1 100680 69
2006-08-29 07:36:52 51°22.584 2°59.716 12.1 244 16.1 100680 69
2006-08-29 07:36:58 51°22.602 2°59.732 11.7 305 16.1 100680 69
2006-08-29 07:37:02 51°22.613 2°59.741 11.5 243 16.1 100670 69
2006-08-29 07:37:08 51°22.629 2°59.754 12.6 277 16.1 100670 69
2006-08-29 07:37:13 51°22.643 2°59.768 12.8 242 16.1 100680 69
2006-08-29 07:37:18 51°22.657 2°59.779 12.3 307 16.1 100680 69
2006-08-29 07:37:23 51°22.67 2°59.791 13.1 20 16.1 100680 69
2006-08-29 07:37:28 51°22.683 2°59.802 12.5 301 16.1 100680 69
2006-08-29 07:37:32 51°22.693 2°59.809 10.6 27 16.1 100670 69
2006-08-29 07:37:38 51°22.707 2°59.824 11.8 304 16.1 100670 69
2006-08-29 07:37:42 51°22.716 2°59.829 11.4 248 16 100670 69
2006-08-29 07:37:48 51°22.729 2°59.84 11 304 16 100670 69
2006-08-29 07:37:53 51°22.74 2°59.849 8.4 248 16 100670 69
2006-08-29 07:37:58 51°22.75 2°59.857 10.4 302 16 100670 69
2006-08-29 07:38:03 51°22.76 2°59.864 10.5 250 16 100690 69
2006-08-29 07:38:08 51°22.77 2°59.872 9.9 310 16 100690 69
2006-08-29 07:38:13 51°22.78 2°59.88 8.3 248 16 100680 68
2006-08-29 07:38:18 51°22.79 2°59.888 10.4 309 16 100680 68
2006-08-29 07:38:22 51°22.798 2°59.894 11.6 21 16 100690 68
2006-08-29 07:38:28 51°22.81 2°59.902 10.1 307 16 100690 68
2006-08-29 07:38:33 51°22.819 2°59.909 10.3 250 16 100700 68
2006-08-29 07:38:38 51°22.829 2°59.918 10.5 303 16 100700 68
2006-08-29 07:38:43 51°22.838 2°59.925 9.4 245 16 100700 68
2006-08-29 07:38:48 51°22.848 2°59.931 10.4 307 16 100700 68
2006-08-29 07:38:52 51°22.855 2°59.935 9.1 249 16 100680 68
2006-08-29 07:38:58 51°22.863 2°59.942 10.2 304 16 100680 68
2006-08-29 07:39:03 51°22.872 2°59.947 9.5 245 16 100690 69
2006-08-29 07:39:08 51°22.879 2°59.951 9.7 283 16 100690 69
2006-08-29 07:39:12 51°22.885 2°59.954 9.6 248 16 100690 70
2006-08-29 07:39:18 51°22.894 2°59.958 10.5 305 16 100690 70
2006-08-29 07:39:23 51°22.901 2°59.962 11.5 249 16.1 100680 70
2006-08-29 07:39:28 51°22.908 2°59.966 10.4 307 16.1 100680 70
2006-08-29 07:39:33 51°22.913 2°59.97 9.6 248 16.1 100690 70
2006-08-29 07:39:38 51°22.92 2°59.972 9.9 303 16.1 100690 70
2006-08-29 07:39:42 51°22.925 2°59.975 10.1 248 16.1 100690 70
2006-08-29 07:39:48 51°22.931 2°59.976 9.2 302 16.1 100690 70
2006-08-29 07:39:52 51°22.935 2°59.979 9.2 251 16 100690 69
2006-08-29 07:39:58 51°22.941 2°59.983 8.3 302 16 100690 69
2006-08-29 07:40:02 51°22.945 2°59.984 8.6 251 16 100690 69
2006-08-29 07:40:08 51°22.95 2°59.987 8.1 279 16 100690 69
2006-08-29 07:40:13 51°22.955 2°59.989 10 249 16 100680 69
2006-08-29 07:40:18 51°22.958 2°59.992 10.1 303 16 100680 69
2006-08-29 07:40:21 51°22.961 2°59.994 9.2 250 16 100700 69
2006-08-29 07:40:28 51°22.966 2°59.996 10 307 16 100700 69
2006-08-29 07:40:33 51°22.97 2°59.998 10.2 252 16 100700 70
2006-08-29 07:40:38 51°22.974 3°0 10.6 309 16 100700 70
2006-08-29 07:40:42 51°22.977 3°0.002 10.9 252 16 100690 70
2006-08-29 07:40:48 51°22.98 3°0.005 11.1 304 16 100690 70
2006-08-29 07:40:53 51°22.984 3°0.006 10.9 254 16 100690 70
2006-08-29 07:40:58 51°22.987 3°0.009 11.4 308 16 100690 70
2006-08-29 07:41:02 51°22.989 3°0.012 10.1 259 15.9 100690 69
2006-08-29 07:41:08 51°22.991 3°0.013 11.1 280 15.9 100690 69
2006-08-29 07:41:12 51°22.993 3°0.014 13 256 15.9 100690 69
2006-08-29 07:41:18 51°22.996 3°0.015 12.5 305 15.9 100690 69
2006-08-29 07:41:23 51°22.998 3°0.017 13.4 256 15.9 100680 69
2006-08-29 07:41:28 51°23 3°0.019 12.9 309 15.9 100680 69
2006-08-29 07:41:33 51°23.002 3°0.02 10.9 257 15.9 100700 69
2006-08-29 07:41:38 51°23.003 3°0.021 10.2 308 15.9 100700 69
2006-08-29 07:41:43 51°23.006 3°0.021 11.9 254 15.9 100690 69
2006-08-29 07:41:48 51°23.007 3°0.023 10.9 305 15.9 100690 69
2006-08-29 07:41:53 51°23.008 3°0.024 11.1 259 15.9 100690 70
2006-08-29 07:41:58 51°23.01 3°0.025 10.2 307 15.9 100690 70
2006-08-29 07:42:01 51°23.011 3°0.026 10.1 260 16 100690 70
2006-08-29 07:42:08 51°23.013 3°0.027 8.3 310 16 100690 70
2006-08-29 07:42:13 51°23.015 3°0.027 10.8 260 16 100690 71
2006-08-29 07:42:18 51°23.017 3°0.028 11.3 308 16 100690 71
2006-08-29 07:42:23 51°23.019 3°0.029 11.9 257 15.9 100700 70
2006-08-29 07:42:28 51°23.021 3°0.03 9.8 308 15.9 100700 70
2006-08-29 07:42:33 51°23.022 3°0.032 8.5 259 15.9 100700 69
2006-08-29 07:42:38 51°23.024 3°0.032 9.8 307 15.9 100700 69
2006-08-29 07:42:42 51°23.025 3°0.031 8.1 258 15.9 100700 68
2006-08-29 07:42:48 51°23.025 3°0.031 9.6 306 15.9 100700 68
2006-08-29 07:42:53 51°23.025 3°0.031 11 256 15.9 100700 68
2006-08-29 07:42:58 51°23.024 3°0.03 11 306 15.9 100700 68
2006-08-29 07:43:02 51°23.024 3°0.03 11.5 259 15.9 100710 69
2006-08-29 07:43:08 51°23.023 3°0.03 8.4 282 15.9 100710 69
2006-08-29 07:43:13 51°23.023 3°0.03 8 260 15.9 100700 70
2006-08-29 07:43:18 51°23.022 3°0.029 7.3 304 15.9 100700 70
2006-08-29 07:43:22 51°23.022 3°0.029 8 261 15.9 100700 70
2006-08-29 07:43:28 51°23.021 3°0.029 10 304 15.9 100700 70
2006-08-29 07:43:32 51°23.02 3°0.028 10.5 258 15.9 100700 69
2006-08-29 07:43:38 51°23.02 3°0.029 9 310 15.9 100700 69
2006-08-29 07:43:42 51°23.019 3°0.028 9 260 15.9 100710 69
2006-08-29 07:43:48 51°23.019 3°0.028 7.5 308 15.9 100710 69
2006-08-29 07:43:53 51°23.018 3°0.029 8.2 260 15.9 100700 70
2006-08-29 07:43:58 51°23.018 3°0.028 5.8 308 15.9 100700 70
2006-08-29 07:44:03 51°23.016 3°0.027 9 262 15.9 100710 71
2006-08-29 07:44:08 51°23.016 3°0.027 5.9 303 15.9 100710 71
2006-08-29 07:44:13 51°23.015 3°0.026 6.7 265 15.9 100700 70
2006-08-29 07:44:18 51°23.015 3°0.026 6.4 308 15.9 100700 70
2006-08-29 07:44:22 51°23.014 3°0.026 9.3 268 15.9 100700 70
2006-08-29 07:44:28 51°23.014 3°0.026 8.5 302 15.9 100700 70
2006-08-29 07:44:33 51°23.013 3°0.026 7.6 266 15.9 100700 71
2006-08-29 07:44:38 51°23.012 3°0.026 8.6 303 15.9 100700 71
2006-08-29 07:44:43 51°23.012 3°0.025 7.4 264 15.9 100700 72
2006-08-29 07:44:48 51°23.011 3°0.025 7.1 307 15.9 100700 72
2006-08-29 07:44:52 51°23.011 3°0.025 7.8 265 15.9 100700 72
2006-08-29 07:44:58 51°23.01 3°0.025 7.3 306 15.9 100700 72
2006-08-29 07:45:02 51°23.009 3°0.025 6.8 262 15.9 100700 71
2006-08-29 07:45:07 51°23.008 3°0.026 9.9 282 15.9 100700 71
2006-08-29 07:45:13 51°23.008 3°0.026 7.8 264 15.8 100700 70
2006-08-29 07:45:18 51°23.007 3°0.026 8.8 304 15.8 100700 70
2006-08-29 07:45:23 51°23.006 3°0.025 8.2 266 15.9 100700 71
2006-08-29 07:45:28 51°23.006 3°0.025 6.5 302 15.9 100700 71
2006-08-29 07:45:32 51°23.006 3°0.024 10.5 261 15.9 100700 72
2006-08-29 07:45:38 51°23.005 3°0.024 7.3 303 15.9 100700 72
2006-08-29 07:45:43 51°23.004 3°0.024 7.1 263 15.9 100700 72
2006-08-29 07:45:48 51°23.003 3°0.025 6.8 303 15.9 100700 72
2006-08-29 07:45:52 51°23.003 3°0.023 7 267 15.9 100700 72
2006-08-29 07:45:58 51°23.003 3°0.023 7.3 303 15.9 100700 72
2006-08-29 07:46:02 51°23.001 3°0.023 8.3 264 15.9 100700 72
2006-08-29 07:46:08 51°23.001 3°0.023 8.7 301 15.9 100700 72
2006-08-29 07:46:12 51°23 3°0.023 6.9 265 15.9 100700 73
2006-08-29 07:46:17 51°23 3°0.022 7.9 302 15.9 100700 73
2006-08-29 07:46:22 51°22.999 3°0.022 7.4 266 15.9 100710 73
2006-08-29 07:46:28 51°22.998 3°0.022 7.5 308 15.9 100710 73
2006-08-29 07:46:33 51°22.998 3°0.022 5.8 264 15.8 100700 72
2006-08-29 07:46:38 51°22.997 3°0.021 7.7 302 15.8 100700 72
2006-08-29 07:46:43 51°22.997 3°0.021 7.7 265 15.8 100700 72
2006-08-29 07:46:48 51°22.996 3°0.021 7.1 304 15.8 100700 72
2006-08-29 07:46:52 51°22.995 3°0.021 9.7 267 15.8 100700 71
2006-08-29 07:46:58 51°22.995 3°0.02 5.6 305 15.8 100700 71
2006-08-29 07:47:02 51°22.994 3°0.02 6.9 264 15.7 100710 70
2006-08-29 07:47:08 51°22.994 3°0.021 8.4 283 15.7 100710 70
2006-08-29 07:47:13 51°22.994 3°0.021 11.3 259 15.7 100700 71
2006-08-29 07:47:18 51°22.993 3°0.021 9 302 15.7 100700 71
2006-08-29 07:47:22 51°22.993 3°0.021 8.9 257 15.8 100700 72
2006-08-29 07:47:28 51°22.992 3°0.021 7.9 306 15.8 100700 72
2006-08-29 07:47:33 51°22.991 3°0.021 9.9 259 15.7 100700 72
2006-08-29 07:47:38 51°22.991 3°0.022 8.2 308 15.7 100700 72
2006-08-29 07:47:43 51°22.991 3°0.021 9.6 261 15.7 100700 72
2006-08-29 07:47:47 51°22.99 3°0.022 10 305 15.7 100700 72
2006-08-29 07:47:52 51°22.989 3°0.021 10.8 256 15.8 100710 73
2006-08-29 07:47:58 51°22.988 3°0.021 9.7 305 15.8 100710 73
2006-08-29 07:48:02 51°22.987 3°0.022 13.2 256 15.8 100710 74
2006-08-29 07:48:07 51°22.986 3°0.023 13.8 281 15.8 100710 74
2006-08-29 07:48:12 51°22.985 3°0.023 13.1 256 15.8 100710 74
2006-08-29 07:48:18 51°22.983 3°0.025 11.9 301 15.8 100710 74
2006-08-29 07:48:23 51°22.982 3°0.026 9 259 15.8 100700 74
2006-08-29 07:48:28 51°22.98 3°0.027 10.5 304 15.8 100700 74
2006-08-29 07:48:33 51°22.979 3°0.028 9.3 259 15.8 100700 73
2006-08-29 07:48:38 51°22.982 3°0.023 11.1 307 15.8 100700 73
2006-08-29 07:48:43 51°22.981 3°0.023 9.5 260 15.7 100700 72
2006-08-29 07:48:48 51°22.981 3°0.022 8.1 307 15.7 100700 72
2006-08-29 07:48:53 51°22.98 3°0.022 10.3 260 15.7 100710 71
2006-08-29 07:48:58 51°22.98 3°0.022 8.4 308 15.7 100710 71
2006-08-29 07:49:02 51°22.979 3°0.021 8.6 252 15.6 100700 71
2006-08-29 07:49:08 51°22.979 3°0.021 8.4 276 15.6 100700 71
2006-08-29 07:49:13 51°22.978 3°0.021 10.3 253 15.6 100710 71
2006-08-29 07:49:18 51°22.977 3°0.021 10 306 15.6 100710 71
2006-08-29 07:49:22 51°22.977 3°0.021 8.6 253 15.6 100700 71
2006-08-29 07:49:28 51°22.976 3°0.021 9 304 15.6 100700 71
2006-08-29 07:49:33 51°22.976 3°0.022 10 255 15.7 100710 73
2006-08-29 07:49:38 51°22.976 3°0.021 7 301 15.7 100710 73
2006-08-29 07:49:43 51°22.975 3°0.02 9.6 252 15.7 100710 74
2006-08-29 07:49:48 51°22.975 3°0.02 10.2 305 15.7 100710 74
2006-08-29 07:49:53 51°22.974 3°0.02 11.8 258 15.8 100710 75
2006-08-29 07:49:58 51°22.974 3°0.021 10.8 308 15.8 100710 75
2006-08-29 07:50:02 51°22.973 3°0.021 10.1 250 15.8 100720 76
2006-08-29 07:50:08 51°22.972 3°0.022 10.6 303 15.8 100720 76
2006-08-29 07:50:13 51°22.972 3°0.021 10.5 251 15.8 100700 77
2006-08-29 07:50:18 51°22.971 3°0.021 10.9 306 15.8 100700 77
2006-08-29 07:50:23 51°22.971 3°0.021 10.7 20 15.8 100700 77
2006-08-29 07:50:28 51°22.97 3°0.021 11.2 307 15.8 100700 77
2006-08-29 07:50:32 51°22.969 3°0.021 11.3 250 15.8 100710 77
2006-08-29 07:50:38 51°22.968 3°0.021 9.3 303 15.8 100710 77
2006-08-29 07:50:42 51°22.968 3°0.021 9.3 252 15.7 100700 77
2006-08-29 07:50:48 51°22.968 3°0.021 9.5 305 15.7 100700 77
2006-08-29 07:50:52 51°22.967 3°0.021 8.5 251 15.6 100710 76
2006-08-29 07:50:57 51°22.967 3°0.021 8.4 302 15.6 100710 76
2006-08-29 07:51:02 51°22.967 3°0.021 9.2 252 15.6 100710 76
2006-08-29 07:51:08 51°22.967 3°0.022 8.9 280 15.6 100710 76
2006-08-29 07:51:13 51°22.968 3°0.023 8.6 253 15.5 100710 76
2006-08-29 07:51:18 51°22.968 3°0.024 8.9 307 15.5 100710 76
2006-08-29 07:51:23 51°22.97 3°0.026 8.8 254 15.4 100720 76
2006-08-29 07:51:28 51°22.972 3°0.028 7.3 308 15.4 100720 76
2006-08-29 07:51:32 51°22.974 3°0.03 7.8 252 15.4 100720 76
2006-08-29 07:51:38 51°22.977 3°0.035 10 306 15.4 100720 76
2006-08-29 07:51:42 51°22.98 3°0.038 8.9 252 15.3 100710 76
2006-08-29 07:51:47 51°22.984 3°0.043 8.3 303 15.3 100710 76
2006-08-29 07:51:53 51°22.988 3°0.051 8.7 257 15.3 100720 76
2006-08-29 07:51:58 51°22.991 3°0.059 6.4 306 15.3 100720 76
2006-08-29 07:52:03 51°22.995 3°0.069 4.8 261 15.3 100710 77
2006-08-29 07:52:08 51°22.997 3°0.079 6 308 15.3 100710 77
2006-08-29 07:52:12 51°22.998 3°0.089 5.6 270 15.2 100710 76
2006-08-29 07:52:18 51°22.999 3°0.104 4.7 48 15.2 100710 76
2006-08-29 07:52:23 51°22.998 3°0.117 3.8 27 15.2 100720 77
2006-08-29 07:52:28 51°22.995 3°0.13 2.7 55 15.2 100720 77
2006-08-29 07:52:32 51°22.993 3°0.14 2.3 28 15.1 100720 76
2006-08-29 07:52:38 51°22.987 3°0.155 1.6 38 15.1 100720 76
2006-08-29 07:52:43 51°22.98 3°0.166 1.3 15 15.1 100720 76
2006-08-29 07:52:48 51°22.973 3°0.175 2.8 38 15.1 100720 76
2006-08-29 07:52:53 51°22.964 3°0.184 2 10 15.1 100720 76
2006-08-29 07:52:58 51°22.955 3°0.189 3.2 29 15.1 100720 76
2006-08-29 07:53:03 51°22.945 3°0.193 4.2 26 15.1 100730 77
2006-08-29 07:53:08 51°22.935 3°0.194 6.6 19 15.1 100730 77
2006-08-29 07:53:13 51°22.924 3°0.195 6.1 20 15.1 100720 77
2006-08-29 07:53:18 51°22.914 3°0.191 7.9 22 15.1 100720 77
2006-08-29 07:53:23 51°22.903 3°0.187 7.5 14 15.2 100720 78